sensor_id;sensor_type;location;lat;lon;timestamp;P1;durP1;ratioP1;P2;durP2;ratioP2
32906;SDS011;19259;51.590;5.320;2022-08-25T00:01:41;13.32;;;5.97;;
32906;SDS011;19259;51.590;5.320;2022-08-25T00:04:07;7.40;;;5.62;;
32906;SDS011;19259;51.590;5.320;2022-08-25T00:06:37;10.53;;;5.85;;
32906;SDS011;19259;51.590;5.320;2022-08-25T00:09:06;9.98;;;5.78;;
32906;SDS011;19259;51.590;5.320;2022-08-25T00:11:35;7.30;;;5.75;;
32906;SDS011;19259;51.590;5.320;2022-08-25T00:14:06;7.30;;;5.75;;
32906;SDS011;19259;51.590;5.320;2022-08-25T00:16:35;8.03;;;5.97;;
32906;SDS011;19259;51.590;5.320;2022-08-25T00:19:04;7.45;;;5.03;;
32906;SDS011;19259;51.590;5.320;2022-08-25T00:21:33;8.73;;;5.58;;
32906;SDS011;19259;51.590;5.320;2022-08-25T00:24:02;7.62;;;4.80;;
32906;SDS011;19259;51.590;5.320;2022-08-25T00:26:30;8.95;;;5.83;;
32906;SDS011;19259;51.590;5.320;2022-08-25T00:28:59;8.55;;;6.15;;
32906;SDS011;19259;51.590;5.320;2022-08-25T00:31:27;11.10;;;8.80;;
32906;SDS011;19259;51.590;5.320;2022-08-25T00:33:55;11.40;;;6.55;;
32906;SDS011;19259;51.590;5.320;2022-08-25T00:36:23;9.68;;;5.40;;
32906;SDS011;19259;51.590;5.320;2022-08-25T00:38:52;12.43;;;7.22;;
32906;SDS011;19259;51.590;5.320;2022-08-25T00:41:22;8.43;;;6.33;;
32906;SDS011;19259;51.590;5.320;2022-08-25T00:46:30;10.38;;;6.50;;
32906;SDS011;19259;51.590;5.320;2022-08-25T00:48:59;8.18;;;6.70;;
32906;SDS011;19259;51.590;5.320;2022-08-25T00:51:34;9.45;;;7.33;;
32906;SDS011;19259;51.590;5.320;2022-08-25T00:54:09;8.90;;;6.53;;
32906;SDS011;19259;51.590;5.320;2022-08-25T00:56:38;10.53;;;6.97;;
32906;SDS011;19259;51.590;5.320;2022-08-25T00:59:06;10.60;;;7.62;;
32906;SDS011;19259;51.590;5.320;2022-08-25T01:01:34;10.98;;;7.35;;
32906;SDS011;19259;51.590;5.320;2022-08-25T01:04:02;11.30;;;7.17;;
32906;SDS011;19259;51.590;5.320;2022-08-25T01:06:30;11.00;;;8.03;;
32906;SDS011;19259;51.590;5.320;2022-08-25T01:09:00;10.88;;;7.97;;
32906;SDS011;19259;51.590;5.320;2022-08-25T01:11:29;13.10;;;8.70;;
32906;SDS011;19259;51.590;5.320;2022-08-25T01:13:56;10.93;;;7.75;;
32906;SDS011;19259;51.590;5.320;2022-08-25T01:16:27;12.45;;;8.00;;
32906;SDS011;19259;51.590;5.320;2022-08-25T01:18:56;12.70;;;8.55;;
32906;SDS011;19259;51.590;5.320;2022-08-25T01:21:26;9.88;;;7.62;;
32906;SDS011;19259;51.590;5.320;2022-08-25T01:23:56;15.63;;;7.65;;
32906;SDS011;19259;51.590;5.320;2022-08-25T01:26:26;11.45;;;8.18;;
32906;SDS011;19259;51.590;5.320;2022-08-25T01:28:56;9.65;;;6.95;;
32906;SDS011;19259;51.590;5.320;2022-08-25T01:31:43;22.70;;;7.60;;
32906;SDS011;19259;51.590;5.320;2022-08-25T01:34:11;13.78;;;8.45;;
32906;SDS011;19259;51.590;5.320;2022-08-25T01:36:41;14.07;;;7.80;;
32906;SDS011;19259;51.590;5.320;2022-08-25T01:39:10;15.88;;;7.92;;
32906;SDS011;19259;51.590;5.320;2022-08-25T01:44:43;10.97;;;8.53;;
32906;SDS011;19259;51.590;5.320;2022-08-25T01:47:11;12.25;;;7.53;;
32906;SDS011;19259;51.590;5.320;2022-08-25T01:49:40;11.22;;;6.80;;
32906;SDS011;19259;51.590;5.320;2022-08-25T01:52:15;14.95;;;7.20;;
32906;SDS011;19259;51.590;5.320;2022-08-25T01:54:42;15.72;;;7.97;;
32906;SDS011;19259;51.590;5.320;2022-08-25T01:57:09;12.33;;;7.75;;
32906;SDS011;19259;51.590;5.320;2022-08-25T01:59:37;14.25;;;9.15;;
32906;SDS011;19259;51.590;5.320;2022-08-25T02:02:05;12.13;;;6.78;;
32906;SDS011;19259;51.590;5.320;2022-08-25T02:04:33;10.55;;;7.78;;
32906;SDS011;19259;51.590;5.320;2022-08-25T02:07:03;11.20;;;8.50;;
32906;SDS011;19259;51.590;5.320;2022-08-25T02:09:34;10.43;;;6.60;;
32906;SDS011;19259;51.590;5.320;2022-08-25T02:12:03;9.03;;;6.62;;
32906;SDS011;19259;51.590;5.320;2022-08-25T02:14:30;14.98;;;7.97;;
32906;SDS011;19259;51.590;5.320;2022-08-25T02:17:00;13.50;;;7.65;;
32906;SDS011;19259;51.590;5.320;2022-08-25T02:19:28;13.10;;;8.33;;
32906;SDS011;19259;51.590;5.320;2022-08-25T02:21:56;9.88;;;7.67;;
32906;SDS011;19259;51.590;5.320;2022-08-25T02:24:25;13.40;;;8.35;;
32906;SDS011;19259;51.590;5.320;2022-08-25T02:26:53;11.15;;;7.17;;
32906;SDS011;19259;51.590;5.320;2022-08-25T02:29:20;7.00;;;4.87;;
32906;SDS011;19259;51.590;5.320;2022-08-25T02:31:48;12.93;;;9.08;;
32906;SDS011;19259;51.590;5.320;2022-08-25T02:34:16;9.68;;;6.45;;
32906;SDS011;19259;51.590;5.320;2022-08-25T02:36:44;12.10;;;9.03;;
32906;SDS011;19259;51.590;5.320;2022-08-25T02:39:11;12.23;;;9.00;;
32906;SDS011;19259;51.590;5.320;2022-08-25T02:41:39;18.67;;;9.45;;
32906;SDS011;19259;51.590;5.320;2022-08-25T02:44:07;12.90;;;8.28;;
32906;SDS011;19259;51.590;5.320;2022-08-25T02:46:35;13.80;;;6.78;;
32906;SDS011;19259;51.590;5.320;2022-08-25T02:49:04;9.75;;;7.67;;
32906;SDS011;19259;51.590;5.320;2022-08-25T02:51:32;12.15;;;8.30;;
32906;SDS011;19259;51.590;5.320;2022-08-25T02:54:01;10.80;;;7.40;;
32906;SDS011;19259;51.590;5.320;2022-08-25T02:56:30;11.78;;;7.42;;
32906;SDS011;19259;51.590;5.320;2022-08-25T02:58:59;12.60;;;8.43;;
32906;SDS011;19259;51.590;5.320;2022-08-25T03:01:28;12.35;;;8.10;;
32906;SDS011;19259;51.590;5.320;2022-08-25T03:03:57;10.90;;;7.70;;
32906;SDS011;19259;51.590;5.320;2022-08-25T03:06:26;12.93;;;7.92;;
32906;SDS011;19259;51.590;5.320;2022-08-25T03:08:54;13.72;;;8.43;;
32906;SDS011;19259;51.590;5.320;2022-08-25T03:11:24;11.00;;;7.40;;
32906;SDS011;19259;51.590;5.320;2022-08-25T03:13:51;10.98;;;7.20;;
32906;SDS011;19259;51.590;5.320;2022-08-25T03:16:19;11.18;;;7.67;;
32906;SDS011;19259;51.590;5.320;2022-08-25T03:18:47;11.18;;;8.15;;
32906;SDS011;19259;51.590;5.320;2022-08-25T03:21:15;14.70;;;8.23;;
32906;SDS011;19259;51.590;5.320;2022-08-25T03:23:43;13.00;;;7.85;;
32906;SDS011;19259;51.590;5.320;2022-08-25T03:26:11;9.58;;;6.75;;
32906;SDS011;19259;51.590;5.320;2022-08-25T03:28:56;12.60;;;6.60;;
32906;SDS011;19259;51.590;5.320;2022-08-25T03:31:24;15.63;;;9.10;;
32906;SDS011;19259;51.590;5.320;2022-08-25T03:33:52;9.08;;;7.12;;
32906;SDS011;19259;51.590;5.320;2022-08-25T03:36:21;14.60;;;8.03;;
32906;SDS011;19259;51.590;5.320;2022-08-25T03:38:48;15.32;;;9.43;;
32906;SDS011;19259;51.590;5.320;2022-08-25T03:41:21;12.70;;;8.65;;
32906;SDS011;19259;51.590;5.320;2022-08-25T03:43:53;12.65;;;8.38;;
32906;SDS011;19259;51.590;5.320;2022-08-25T03:46:23;15.13;;;8.13;;
32906;SDS011;19259;51.590;5.320;2022-08-25T03:48:52;11.50;;;7.75;;
32906;SDS011;19259;51.590;5.320;2022-08-25T03:51:21;10.18;;;7.65;;
32906;SDS011;19259;51.590;5.320;2022-08-25T03:53:51;10.45;;;7.78;;
32906;SDS011;19259;51.590;5.320;2022-08-25T03:56:19;11.70;;;6.83;;
32906;SDS011;19259;51.590;5.320;2022-08-25T03:58:47;11.75;;;7.12;;
32906;SDS011;19259;51.590;5.320;2022-08-25T04:01:15;14.30;;;7.72;;
32906;SDS011;19259;51.590;5.320;2022-08-25T04:03:42;11.63;;;7.53;;
32906;SDS011;19259;51.590;5.320;2022-08-25T04:06:10;13.58;;;8.03;;
32906;SDS011;19259;51.590;5.320;2022-08-25T04:08:41;10.65;;;7.92;;
32906;SDS011;19259;51.590;5.320;2022-08-25T04:11:16;13.40;;;7.58;;
32906;SDS011;19259;51.590;5.320;2022-08-25T04:13:45;14.87;;;7.92;;
32906;SDS011;19259;51.590;5.320;2022-08-25T04:16:27;11.28;;;7.75;;
32906;SDS011;19259;51.590;5.320;2022-08-25T04:18:50;13.45;;;7.62;;
32906;SDS011;19259;51.590;5.320;2022-08-25T04:21:19;12.75;;;7.67;;
32906;SDS011;19259;51.590;5.320;2022-08-25T04:23:48;13.78;;;7.25;;
32906;SDS011;19259;51.590;5.320;2022-08-25T04:26:18;14.58;;;7.45;;
32906;SDS011;19259;51.590;5.320;2022-08-25T04:28:47;11.03;;;7.53;;
32906;SDS011;19259;51.590;5.320;2022-08-25T04:31:15;14.55;;;7.53;;
32906;SDS011;19259;51.590;5.320;2022-08-25T04:33:44;13.28;;;7.47;;
32906;SDS011;19259;51.590;5.320;2022-08-25T04:36:13;11.97;;;7.00;;
32906;SDS011;19259;51.590;5.320;2022-08-25T04:38:48;11.43;;;6.78;;
32906;SDS011;19259;51.590;5.320;2022-08-25T04:41:12;12.03;;;6.95;;
32906;SDS011;19259;51.590;5.320;2022-08-25T04:43:42;9.38;;;6.65;;
32906;SDS011;19259;51.590;5.320;2022-08-25T04:46:11;12.80;;;7.97;;
32906;SDS011;19259;51.590;5.320;2022-08-25T04:48:41;13.72;;;6.50;;
32906;SDS011;19259;51.590;5.320;2022-08-25T04:51:10;11.45;;;7.12;;
32906;SDS011;19259;51.590;5.320;2022-08-25T04:53:39;12.18;;;6.20;;
32906;SDS011;19259;51.590;5.320;2022-08-25T04:56:08;14.80;;;7.60;;
32906;SDS011;19259;51.590;5.320;2022-08-25T04:58:38;11.20;;;7.08;;
32906;SDS011;19259;51.590;5.320;2022-08-25T05:01:07;15.70;;;7.72;;
32906;SDS011;19259;51.590;5.320;2022-08-25T05:03:37;11.53;;;7.33;;
32906;SDS011;19259;51.590;5.320;2022-08-25T05:06:04;11.20;;;7.03;;
32906;SDS011;19259;51.590;5.320;2022-08-25T05:08:33;11.35;;;6.50;;
32906;SDS011;19259;51.590;5.320;2022-08-25T05:11:04;13.32;;;7.22;;
32906;SDS011;19259;51.590;5.320;2022-08-25T05:13:33;8.78;;;6.37;;
32906;SDS011;19259;51.590;5.320;2022-08-25T05:16:02;10.53;;;6.42;;
32906;SDS011;19259;51.590;5.320;2022-08-25T05:18:31;10.48;;;6.53;;
32906;SDS011;19259;51.590;5.320;2022-08-25T05:21:00;10.38;;;6.58;;
32906;SDS011;19259;51.590;5.320;2022-08-25T05:23:30;10.80;;;6.30;;
32906;SDS011;19259;51.590;5.320;2022-08-25T05:26:06;11.55;;;7.62;;
32906;SDS011;19259;51.590;5.320;2022-08-25T05:28:37;15.45;;;7.05;;
32906;SDS011;19259;51.590;5.320;2022-08-25T05:31:07;14.07;;;7.45;;
32906;SDS011;19259;51.590;5.320;2022-08-25T05:33:38;11.20;;;7.00;;
32906;SDS011;19259;51.590;5.320;2022-08-25T05:36:06;11.63;;;6.22;;
32906;SDS011;19259;51.590;5.320;2022-08-25T05:38:35;13.55;;;6.62;;
32906;SDS011;19259;51.590;5.320;2022-08-25T05:41:06;11.73;;;7.40;;
32906;SDS011;19259;51.590;5.320;2022-08-25T05:43:35;10.95;;;5.90;;
32906;SDS011;19259;51.590;5.320;2022-08-25T05:46:04;9.65;;;5.87;;
32906;SDS011;19259;51.590;5.320;2022-08-25T05:48:33;10.40;;;6.12;;
32906;SDS011;19259;51.590;5.320;2022-08-25T05:51:01;9.43;;;6.70;;
32906;SDS011;19259;51.590;5.320;2022-08-25T05:53:31;9.15;;;6.00;;
32906;SDS011;19259;51.590;5.320;2022-08-25T05:56:00;12.25;;;6.37;;
32906;SDS011;19259;51.590;5.320;2022-08-25T05:58:30;9.38;;;5.67;;
32906;SDS011;19259;51.590;5.320;2022-08-25T06:00:58;9.10;;;5.95;;
32906;SDS011;19259;51.590;5.320;2022-08-25T06:03:44;11.15;;;5.55;;
32906;SDS011;19259;51.590;5.320;2022-08-25T06:06:17;12.13;;;6.55;;
32906;SDS011;19259;51.590;5.320;2022-08-25T06:08:45;15.08;;;6.35;;
32906;SDS011;19259;51.590;5.320;2022-08-25T06:11:13;9.50;;;6.28;;
32906;SDS011;19259;51.590;5.320;2022-08-25T06:13:41;12.45;;;6.30;;
32906;SDS011;19259;51.590;5.320;2022-08-25T06:16:10;11.65;;;6.55;;
32906;SDS011;19259;51.590;5.320;2022-08-25T06:18:37;8.20;;;5.95;;
32906;SDS011;19259;51.590;5.320;2022-08-25T06:21:09;8.43;;;5.70;;
32906;SDS011;19259;51.590;5.320;2022-08-25T06:23:39;11.45;;;6.33;;
32906;SDS011;19259;51.590;5.320;2022-08-25T06:26:08;12.50;;;7.37;;
32906;SDS011;19259;51.590;5.320;2022-08-25T06:28:36;11.73;;;6.33;;
32906;SDS011;19259;51.590;5.320;2022-08-25T06:31:04;10.10;;;5.00;;
32906;SDS011;19259;51.590;5.320;2022-08-25T06:33:32;10.30;;;5.40;;
32906;SDS011;19259;51.590;5.320;2022-08-25T06:35:59;8.93;;;5.87;;
32906;SDS011;19259;51.590;5.320;2022-08-25T06:38:27;8.53;;;4.95;;
32906;SDS011;19259;51.590;5.320;2022-08-25T06:40:54;13.93;;;5.97;;
32906;SDS011;19259;51.590;5.320;2022-08-25T06:43:23;11.38;;;6.10;;
32906;SDS011;19259;51.590;5.320;2022-08-25T06:45:50;12.63;;;6.28;;
32906;SDS011;19259;51.590;5.320;2022-08-25T06:48:18;10.08;;;5.17;;
32906;SDS011;19259;51.590;5.320;2022-08-25T06:50:45;8.93;;;5.83;;
32906;SDS011;19259;51.590;5.320;2022-08-25T06:53:13;18.17;;;6.95;;
32906;SDS011;19259;51.590;5.320;2022-08-25T06:55:41;9.88;;;5.72;;
32906;SDS011;19259;51.590;5.320;2022-08-25T06:58:10;12.70;;;6.87;;
32906;SDS011;19259;51.590;5.320;2022-08-25T07:00:37;9.35;;;5.25;;
32906;SDS011;19259;51.590;5.320;2022-08-25T07:03:05;18.87;;;7.62;;
32906;SDS011;19259;51.590;5.320;2022-08-25T07:05:32;10.80;;;5.80;;
32906;SDS011;19259;51.590;5.320;2022-08-25T07:08:00;11.70;;;5.42;;
32906;SDS011;19259;51.590;5.320;2022-08-25T07:10:28;12.28;;;6.20;;
32906;SDS011;19259;51.590;5.320;2022-08-25T07:12:55;13.83;;;6.00;;
32906;SDS011;19259;51.590;5.320;2022-08-25T07:15:23;9.23;;;5.47;;
32906;SDS011;19259;51.590;5.320;2022-08-25T07:17:50;14.93;;;6.05;;
32906;SDS011;19259;51.590;5.320;2022-08-25T07:20:18;11.50;;;5.17;;
32906;SDS011;19259;51.590;5.320;2022-08-25T07:22:45;10.70;;;5.65;;
32906;SDS011;19259;51.590;5.320;2022-08-25T07:25:15;9.48;;;5.58;;
32906;SDS011;19259;51.590;5.320;2022-08-25T07:27:43;7.33;;;4.42;;
32906;SDS011;19259;51.590;5.320;2022-08-25T07:30:11;7.58;;;5.12;;
32906;SDS011;19259;51.590;5.320;2022-08-25T07:32:38;11.80;;;5.10;;
32906;SDS011;19259;51.590;5.320;2022-08-25T07:35:06;10.60;;;5.55;;
32906;SDS011;19259;51.590;5.320;2022-08-25T07:37:44;8.15;;;5.05;;
32906;SDS011;19259;51.590;5.320;2022-08-25T07:40:14;9.38;;;5.55;;
32906;SDS011;19259;51.590;5.320;2022-08-25T07:42:44;12.13;;;4.92;;
32906;SDS011;19259;51.590;5.320;2022-08-25T07:45:12;10.25;;;5.22;;
32906;SDS011;19259;51.590;5.320;2022-08-25T07:47:40;9.93;;;5.78;;
32906;SDS011;19259;51.590;5.320;2022-08-25T07:50:09;9.53;;;5.03;;
32906;SDS011;19259;51.590;5.320;2022-08-25T07:52:38;9.48;;;4.60;;
32906;SDS011;19259;51.590;5.320;2022-08-25T07:55:06;8.23;;;4.40;;
32906;SDS011;19259;51.590;5.320;2022-08-25T07:57:34;10.70;;;4.40;;
32906;SDS011;19259;51.590;5.320;2022-08-25T08:00:03;11.03;;;4.47;;
32906;SDS011;19259;51.590;5.320;2022-08-25T08:02:32;8.88;;;3.83;;
32906;SDS011;19259;51.590;5.320;2022-08-25T08:05:00;9.05;;;4.00;;
32906;SDS011;19259;51.590;5.320;2022-08-25T08:07:27;8.93;;;4.85;;
32906;SDS011;19259;51.590;5.320;2022-08-25T08:09:56;10.30;;;4.85;;
32906;SDS011;19259;51.590;5.320;2022-08-25T08:12:24;6.70;;;4.50;;
32906;SDS011;19259;51.590;5.320;2022-08-25T08:14:52;12.80;;;4.50;;
32906;SDS011;19259;51.590;5.320;2022-08-25T08:17:22;9.83;;;4.33;;
32906;SDS011;19259;51.590;5.320;2022-08-25T08:19:50;9.95;;;4.35;;
32906;SDS011;19259;51.590;5.320;2022-08-25T08:22:17;9.23;;;4.10;;
32906;SDS011;19259;51.590;5.320;2022-08-25T08:24:47;8.00;;;3.87;;
32906;SDS011;19259;51.590;5.320;2022-08-25T08:27:14;8.50;;;4.00;;
32906;SDS011;19259;51.590;5.320;2022-08-25T08:29:50;11.40;;;4.72;;
32906;SDS011;19259;51.590;5.320;2022-08-25T08:32:14;7.53;;;3.60;;
32906;SDS011;19259;51.590;5.320;2022-08-25T08:34:42;9.33;;;4.15;;
32906;SDS011;19259;51.590;5.320;2022-08-25T08:37:11;13.68;;;4.72;;
32906;SDS011;19259;51.590;5.320;2022-08-25T08:39:39;7.25;;;4.28;;
32906;SDS011;19259;51.590;5.320;2022-08-25T08:42:12;7.50;;;4.12;;
32906;SDS011;19259;51.590;5.320;2022-08-25T08:44:47;6.33;;;4.47;;
32906;SDS011;19259;51.590;5.320;2022-08-25T08:53:00;10.43;;;3.75;;
32906;SDS011;19259;51.590;5.320;2022-08-25T08:55:34;6.47;;;3.10;;
32906;SDS011;19259;51.590;5.320;2022-08-25T08:58:22;7.10;;;3.30;;
32906;SDS011;19259;51.590;5.320;2022-08-25T09:00:48;6.58;;;3.75;;
32906;SDS011;19259;51.590;5.320;2022-08-25T09:03:32;8.05;;;3.40;;
32906;SDS011;19259;51.590;5.320;2022-08-25T09:05:59;6.80;;;2.90;;
32906;SDS011;19259;51.590;5.320;2022-08-25T09:08:30;10.25;;;3.47;;
32906;SDS011;19259;51.590;5.320;2022-08-25T09:17:03;6.67;;;3.90;;
32906;SDS011;19259;51.590;5.320;2022-08-25T09:27:34;8.95;;;3.85;;
32906;SDS011;19259;51.590;5.320;2022-08-25T09:30:14;5.42;;;3.33;;
32906;SDS011;19259;51.590;5.320;2022-08-25T09:32:48;7.70;;;3.17;;
32906;SDS011;19259;51.590;5.320;2022-08-25T09:35:24;6.92;;;3.22;;
32906;SDS011;19259;51.590;5.320;2022-08-25T09:38:11;8.05;;;3.25;;
32906;SDS011;19259;51.590;5.320;2022-08-25T09:40:28;6.92;;;3.08;;
32906;SDS011;19259;51.590;5.320;2022-08-25T09:42:58;6.90;;;3.42;;
32906;SDS011;19259;51.590;5.320;2022-08-25T09:45:41;6.10;;;3.35;;
32906;SDS011;19259;51.590;5.320;2022-08-25T09:48:27;6.20;;;3.50;;
32906;SDS011;19259;51.590;5.320;2022-08-25T09:51:00;4.78;;;3.08;;
32906;SDS011;19259;51.590;5.320;2022-08-25T09:53:29;7.67;;;3.33;;
32906;SDS011;19259;51.590;5.320;2022-08-25T09:56:02;6.00;;;2.90;;
32906;SDS011;19259;51.590;5.320;2022-08-25T09:58:31;7.08;;;3.10;;
32906;SDS011;19259;51.590;5.320;2022-08-25T10:01:32;5.20;;;2.70;;
32906;SDS011;19259;51.590;5.320;2022-08-25T10:03:55;8.03;;;3.30;;
32906;SDS011;19259;51.590;5.320;2022-08-25T10:08:58;5.90;;;3.00;;
32906;SDS011;19259;51.590;5.320;2022-08-25T10:16:45;9.05;;;2.98;;
32906;SDS011;19259;51.590;5.320;2022-08-25T10:19:21;4.85;;;3.12;;
32906;SDS011;19259;51.590;5.320;2022-08-25T10:22:01;7.17;;;3.10;;
32906;SDS011;19259;51.590;5.320;2022-08-25T10:24:17;5.83;;;2.52;;
32906;SDS011;19259;51.590;5.320;2022-08-25T10:35:12;6.53;;;2.85;;
32906;SDS011;19259;51.590;5.320;2022-08-25T10:37:48;3.87;;;2.55;;
32906;SDS011;19259;51.590;5.320;2022-08-25T10:40:24;5.90;;;2.90;;
32906;SDS011;19259;51.590;5.320;2022-08-25T10:43:23;9.98;;;3.05;;
32906;SDS011;19259;51.590;5.320;2022-08-25T10:45:40;4.92;;;2.95;;
32906;SDS011;19259;51.590;5.320;2022-08-25T10:53:56;7.50;;;2.95;;
32906;SDS011;19259;51.590;5.320;2022-08-25T10:56:35;5.10;;;3.15;;
32906;SDS011;19259;51.590;5.320;2022-08-25T11:07:44;6.20;;;2.60;;
32906;SDS011;19259;51.590;5.320;2022-08-25T11:12:44;8.33;;;2.70;;
32906;SDS011;19259;51.590;5.320;2022-08-25T11:15:25;4.50;;;2.47;;
32906;SDS011;19259;51.590;5.320;2022-08-25T11:18:02;6.00;;;2.47;;
32906;SDS011;19259;51.590;5.320;2022-08-25T11:20:36;3.17;;;2.27;;
32906;SDS011;19259;51.590;5.320;2022-08-25T11:25:58;8.33;;;2.60;;
32906;SDS011;19259;51.590;5.320;2022-08-25T11:31:36;3.83;;;2.45;;
32906;SDS011;19259;51.590;5.320;2022-08-25T11:34:15;5.72;;;2.95;;
32906;SDS011;19259;51.590;5.320;2022-08-25T11:36:51;5.70;;;2.70;;
32906;SDS011;19259;51.590;5.320;2022-08-25T11:39:37;5.25;;;2.55;;
32906;SDS011;19259;51.590;5.320;2022-08-25T11:47:49;4.12;;;2.67;;
32906;SDS011;19259;51.590;5.320;2022-08-25T11:50:34;5.87;;;2.50;;
32906;SDS011;19259;51.590;5.320;2022-08-25T11:55:53;5.83;;;2.50;;
32906;SDS011;19259;51.590;5.320;2022-08-25T12:01:01;5.65;;;2.72;;
32906;SDS011;19259;51.590;5.320;2022-08-25T12:06:22;3.75;;;2.20;;
32906;SDS011;19259;51.590;5.320;2022-08-25T12:08:52;5.65;;;2.40;;
32906;SDS011;19259;51.590;5.320;2022-08-25T12:19:27;5.30;;;2.58;;
32906;SDS011;19259;51.590;5.320;2022-08-25T12:29:47;3.27;;;2.02;;
32906;SDS011;19259;51.590;5.320;2022-08-25T12:35:09;4.70;;;2.62;;
32906;SDS011;19259;51.590;5.320;2022-08-25T12:37:53;5.62;;;2.52;;
32906;SDS011;19259;51.590;5.320;2022-08-25T12:40:37;4.92;;;2.52;;
32906;SDS011;19259;51.590;5.320;2022-08-25T12:43:21;4.65;;;2.65;;
32906;SDS011;19259;51.590;5.320;2022-08-25T12:46:42;7.45;;;2.55;;
32906;SDS011;19259;51.590;5.320;2022-08-25T12:48:52;3.67;;;2.08;;
32906;SDS011;19259;51.590;5.320;2022-08-25T12:51:26;4.30;;;2.70;;
32906;SDS011;19259;51.590;5.320;2022-08-25T12:54:12;6.50;;;2.62;;
32906;SDS011;19259;51.590;5.320;2022-08-25T12:56:49;4.50;;;2.40;;
32906;SDS011;19259;51.590;5.320;2022-08-25T12:59:19;7.30;;;2.80;;
32906;SDS011;19259;51.590;5.320;2022-08-25T13:04:59;5.28;;;2.70;;
32906;SDS011;19259;51.590;5.320;2022-08-25T13:11:08;5.55;;;2.90;;
32906;SDS011;19259;51.590;5.320;2022-08-25T13:15:40;6.50;;;3.45;;
32906;SDS011;19259;51.590;5.320;2022-08-25T13:18:20;4.92;;;2.72;;
32906;SDS011;19259;51.590;5.320;2022-08-25T13:20:52;5.62;;;2.72;;
32906;SDS011;19259;51.590;5.320;2022-08-25T13:23:22;3.75;;;2.80;;
32906;SDS011;19259;51.590;5.320;2022-08-25T13:25:52;6.00;;;2.80;;
32906;SDS011;19259;51.590;5.320;2022-08-25T13:28:39;4.90;;;2.95;;
32906;SDS011;19259;51.590;5.320;2022-08-25T13:31:15;5.00;;;2.80;;
32906;SDS011;19259;51.590;5.320;2022-08-25T13:34:19;6.97;;;2.55;;
32906;SDS011;19259;51.590;5.320;2022-08-25T13:36:24;5.97;;;2.50;;
32906;SDS011;19259;51.590;5.320;2022-08-25T13:39:17;5.35;;;2.55;;
32906;SDS011;19259;51.590;5.320;2022-08-25T13:41:46;3.85;;;2.50;;
32906;SDS011;19259;51.590;5.320;2022-08-25T13:46:44;6.35;;;2.87;;
32906;SDS011;19259;51.590;5.320;2022-08-25T13:49:24;4.58;;;2.80;;
32906;SDS011;19259;51.590;5.320;2022-08-25T13:51:50;6.75;;;2.72;;
32906;SDS011;19259;51.590;5.320;2022-08-25T13:54:27;5.00;;;2.90;;
32906;SDS011;19259;51.590;5.320;2022-08-25T13:57:30;5.35;;;2.80;;
32906;SDS011;19259;51.590;5.320;2022-08-25T13:59:39;5.17;;;2.70;;
32906;SDS011;19259;51.590;5.320;2022-08-25T14:02:10;4.92;;;2.47;;
32906;SDS011;19259;51.590;5.320;2022-08-25T14:12:45;7.53;;;2.77;;
32906;SDS011;19259;51.590;5.320;2022-08-25T14:17:57;6.03;;;2.45;;
32906;SDS011;19259;51.590;5.320;2022-08-25T14:20:31;5.85;;;2.70;;
32906;SDS011;19259;51.590;5.320;2022-08-25T14:23:07;6.72;;;2.37;;
32906;SDS011;19259;51.590;5.320;2022-08-25T14:25:31;5.83;;;2.80;;
32906;SDS011;19259;51.590;5.320;2022-08-25T14:28:01;5.03;;;2.92;;
32906;SDS011;19259;51.590;5.320;2022-08-25T14:30:30;4.40;;;2.30;;
32906;SDS011;19259;51.590;5.320;2022-08-25T14:32:59;5.37;;;2.55;;
32906;SDS011;19259;51.590;5.320;2022-08-25T14:35:28;5.60;;;2.52;;
32906;SDS011;19259;51.590;5.320;2022-08-25T14:37:56;4.03;;;2.60;;
32906;SDS011;19259;51.590;5.320;2022-08-25T14:40:24;4.00;;;2.42;;
32906;SDS011;19259;51.590;5.320;2022-08-25T14:42:52;4.70;;;2.55;;
32906;SDS011;19259;51.590;5.320;2022-08-25T14:45:20;4.45;;;2.58;;
32906;SDS011;19259;51.590;5.320;2022-08-25T14:47:47;7.30;;;2.70;;
32906;SDS011;19259;51.590;5.320;2022-08-25T14:50:15;4.10;;;2.70;;
32906;SDS011;19259;51.590;5.320;2022-08-25T14:52:45;7.30;;;2.92;;
32906;SDS011;19259;51.590;5.320;2022-08-25T14:55:13;7.67;;;2.60;;
32906;SDS011;19259;51.590;5.320;2022-08-25T14:57:40;6.72;;;3.45;;
32906;SDS011;19259;51.590;5.320;2022-08-25T15:00:08;4.70;;;2.85;;
32906;SDS011;19259;51.590;5.320;2022-08-25T15:02:38;5.65;;;2.80;;
32906;SDS011;19259;51.590;5.320;2022-08-25T15:05:07;4.25;;;2.62;;
32906;SDS011;19259;51.590;5.320;2022-08-25T15:07:37;6.10;;;2.92;;
32906;SDS011;19259;51.590;5.320;2022-08-25T15:10:22;6.03;;;3.27;;
32906;SDS011;19259;51.590;5.320;2022-08-25T15:12:50;4.53;;;2.62;;
32906;SDS011;19259;51.590;5.320;2022-08-25T15:15:18;6.55;;;2.37;;
32906;SDS011;19259;51.590;5.320;2022-08-25T15:17:45;6.15;;;2.60;;
32906;SDS011;19259;51.590;5.320;2022-08-25T15:20:13;4.10;;;2.85;;
32906;SDS011;19259;51.590;5.320;2022-08-25T15:22:41;5.97;;;3.02;;
32906;SDS011;19259;51.590;5.320;2022-08-25T15:25:10;10.30;;;2.80;;
32906;SDS011;19259;51.590;5.320;2022-08-25T15:27:38;3.90;;;2.45;;
32906;SDS011;19259;51.590;5.320;2022-08-25T15:30:06;5.05;;;2.60;;
32906;SDS011;19259;51.590;5.320;2022-08-25T15:32:34;4.80;;;2.72;;
32906;SDS011;19259;51.590;5.320;2022-08-25T15:35:02;5.37;;;2.42;;
32906;SDS011;19259;51.590;5.320;2022-08-25T15:37:30;4.25;;;2.55;;
32906;SDS011;19259;51.590;5.320;2022-08-25T15:40:00;4.05;;;2.55;;
32906;SDS011;19259;51.590;5.320;2022-08-25T15:42:30;6.83;;;3.08;;
32906;SDS011;19259;51.590;5.320;2022-08-25T15:44:57;7.70;;;2.40;;
32906;SDS011;19259;51.590;5.320;2022-08-25T15:47:24;4.50;;;2.90;;
32906;SDS011;19259;51.590;5.320;2022-08-25T15:49:59;3.85;;;2.55;;
32906;SDS011;19259;51.590;5.320;2022-08-25T15:52:23;8.90;;;3.02;;
32906;SDS011;19259;51.590;5.320;2022-08-25T15:54:52;7.28;;;2.80;;
32906;SDS011;19259;51.590;5.320;2022-08-25T15:57:20;4.65;;;2.62;;
32906;SDS011;19259;51.590;5.320;2022-08-25T15:59:48;6.87;;;2.80;;
32906;SDS011;19259;51.590;5.320;2022-08-25T16:02:22;5.05;;;2.42;;
32906;SDS011;19259;51.590;5.320;2022-08-25T16:04:46;6.90;;;3.15;;
32906;SDS011;19259;51.590;5.320;2022-08-25T16:07:15;5.12;;;2.50;;
32906;SDS011;19259;51.590;5.320;2022-08-25T16:09:43;6.42;;;3.10;;
32906;SDS011;19259;51.590;5.320;2022-08-25T16:12:11;4.97;;;2.52;;
32906;SDS011;19259;51.590;5.320;2022-08-25T16:14:39;5.12;;;2.90;;
32906;SDS011;19259;51.590;5.320;2022-08-25T16:17:06;4.83;;;2.70;;
32906;SDS011;19259;51.590;5.320;2022-08-25T16:19:35;5.17;;;2.90;;
32906;SDS011;19259;51.590;5.320;2022-08-25T16:22:02;4.47;;;2.70;;
32906;SDS011;19259;51.590;5.320;2022-08-25T16:24:30;5.95;;;2.98;;
32906;SDS011;19259;51.590;5.320;2022-08-25T16:26:58;5.67;;;2.95;;
32906;SDS011;19259;51.590;5.320;2022-08-25T16:29:28;5.05;;;2.70;;
32906;SDS011;19259;51.590;5.320;2022-08-25T16:31:56;3.98;;;2.75;;
32906;SDS011;19259;51.590;5.320;2022-08-25T16:34:25;5.15;;;2.77;;
32906;SDS011;19259;51.590;5.320;2022-08-25T16:36:53;4.50;;;2.72;;
32906;SDS011;19259;51.590;5.320;2022-08-25T16:39:20;7.22;;;2.95;;
32906;SDS011;19259;51.590;5.320;2022-08-25T16:41:48;6.50;;;2.72;;
32906;SDS011;19259;51.590;5.320;2022-08-25T16:44:17;3.95;;;2.70;;
32906;SDS011;19259;51.590;5.320;2022-08-25T16:46:45;5.17;;;2.77;;
32906;SDS011;19259;51.590;5.320;2022-08-25T16:49:13;4.80;;;2.70;;
32906;SDS011;19259;51.590;5.320;2022-08-25T16:51:41;7.08;;;3.05;;
32906;SDS011;19259;51.590;5.320;2022-08-25T16:54:09;5.40;;;2.60;;
32906;SDS011;19259;51.590;5.320;2022-08-25T16:56:55;6.37;;;2.60;;
32906;SDS011;19259;51.590;5.320;2022-08-25T16:59:23;5.20;;;2.90;;
32906;SDS011;19259;51.590;5.320;2022-08-25T17:01:52;4.40;;;2.50;;